sensor_id;sensor_type;location;lat;lon;timestamp;P1;durP1;ratioP1;P2;durP2;ratioP2
72895;SDS011;61036;53.224;6.554;2022-12-18T00:00:58;81.97;;;36.30;;
72895;SDS011;61036;53.224;6.554;2022-12-18T00:03:23;76.80;;;34.20;;
72895;SDS011;61036;53.224;6.554;2022-12-18T00:05:50;78.60;;;34.95;;
72895;SDS011;61036;53.224;6.554;2022-12-18T00:08:16;80.60;;;36.03;;
72895;SDS011;61036;53.224;6.554;2022-12-18T00:10:42;73.70;;;34.03;;
72895;SDS011;61036;53.224;6.554;2022-12-18T00:13:09;85.40;;;34.45;;
72895;SDS011;61036;53.224;6.554;2022-12-18T00:15:36;79.25;;;35.33;;
72895;SDS011;61036;53.224;6.554;2022-12-18T00:18:03;77.50;;;34.53;;
72895;SDS011;61036;53.224;6.554;2022-12-18T00:20:29;77.60;;;34.30;;
72895;SDS011;61036;53.224;6.554;2022-12-18T00:22:56;76.73;;;34.57;;
72895;SDS011;61036;53.224;6.554;2022-12-18T00:25:21;76.17;;;34.80;;
72895;SDS011;61036;53.224;6.554;2022-12-18T00:27:47;78.97;;;34.40;;
72895;SDS011;61036;53.224;6.554;2022-12-18T00:30:14;80.32;;;34.22;;
72895;SDS011;61036;53.224;6.554;2022-12-18T00:32:39;85.53;;;36.63;;
72895;SDS011;61036;53.224;6.554;2022-12-18T00:35:07;68.47;;;31.67;;
72895;SDS011;61036;53.224;6.554;2022-12-18T00:37:34;74.97;;;33.05;;
72895;SDS011;61036;53.224;6.554;2022-12-18T00:39:59;80.43;;;32.47;;
72895;SDS011;61036;53.224;6.554;2022-12-18T00:42:28;75.70;;;33.13;;
72895;SDS011;61036;53.224;6.554;2022-12-18T00:45:12;67.97;;;33.22;;
72895;SDS011;61036;53.224;6.554;2022-12-18T00:47:40;75.77;;;33.43;;
72895;SDS011;61036;53.224;6.554;2022-12-18T00:50:06;71.82;;;32.30;;
72895;SDS011;61036;53.224;6.554;2022-12-18T00:52:33;71.60;;;32.08;;
72895;SDS011;61036;53.224;6.554;2022-12-18T00:54:59;66.13;;;29.77;;
72895;SDS011;61036;53.224;6.554;2022-12-18T00:57:25;72.23;;;32.63;;
72895;SDS011;61036;53.224;6.554;2022-12-18T00:59:50;74.30;;;31.80;;
72895;SDS011;61036;53.224;6.554;2022-12-18T01:02:17;69.30;;;31.33;;
72895;SDS011;61036;53.224;6.554;2022-12-18T01:04:42;66.27;;;31.07;;
72895;SDS011;61036;53.224;6.554;2022-12-18T01:07:09;67.80;;;31.80;;
72895;SDS011;61036;53.224;6.554;2022-12-18T01:09:35;78.15;;;33.70;;
72895;SDS011;61036;53.224;6.554;2022-12-18T01:12:01;73.47;;;32.57;;
72895;SDS011;61036;53.224;6.554;2022-12-18T01:14:29;80.40;;;33.15;;
72895;SDS011;61036;53.224;6.554;2022-12-18T01:16:58;69.05;;;33.35;;
72895;SDS011;61036;53.224;6.554;2022-12-18T01:19:23;72.67;;;32.87;;
72895;SDS011;61036;53.224;6.554;2022-12-18T01:21:49;75.60;;;32.97;;
72895;SDS011;61036;53.224;6.554;2022-12-18T01:24:15;74.63;;;32.90;;
72895;SDS011;61036;53.224;6.554;2022-12-18T01:26:40;81.13;;;35.13;;
72895;SDS011;61036;53.224;6.554;2022-12-18T01:29:06;65.70;;;30.83;;
72895;SDS011;61036;53.224;6.554;2022-12-18T01:31:33;74.03;;;33.58;;
72895;SDS011;61036;53.224;6.554;2022-12-18T01:34:01;68.43;;;31.42;;
72895;SDS011;61036;53.224;6.554;2022-12-18T01:36:28;64.18;;;30.67;;
72895;SDS011;61036;53.224;6.554;2022-12-18T01:39:05;69.28;;;30.88;;
72895;SDS011;61036;53.224;6.554;2022-12-18T01:41:33;68.13;;;33.25;;
72895;SDS011;61036;53.224;6.554;2022-12-18T01:50:16;62.45;;;28.85;;
72895;SDS011;61036;53.224;6.554;2022-12-18T01:53:03;72.22;;;33.42;;
72895;SDS011;61036;53.224;6.554;2022-12-18T01:55:32;65.13;;;28.85;;
72895;SDS011;61036;53.224;6.554;2022-12-18T01:58:02;65.28;;;29.67;;
72895;SDS011;61036;53.224;6.554;2022-12-18T02:00:31;70.05;;;31.80;;
72895;SDS011;61036;53.224;6.554;2022-12-18T02:02:57;65.57;;;29.63;;
72895;SDS011;61036;53.224;6.554;2022-12-18T02:08:09;58.08;;;28.27;;
72895;SDS011;61036;53.224;6.554;2022-12-18T02:10:47;60.67;;;28.65;;
72895;SDS011;61036;53.224;6.554;2022-12-18T02:13:36;58.85;;;28.73;;
72895;SDS011;61036;53.224;6.554;2022-12-18T02:18:56;68.88;;;29.73;;
72895;SDS011;61036;53.224;6.554;2022-12-18T02:26:49;62.70;;;29.83;;
72895;SDS011;61036;53.224;6.554;2022-12-18T02:29:21;66.30;;;29.67;;
72895;SDS011;61036;53.224;6.554;2022-12-18T02:31:58;68.85;;;31.23;;
72895;SDS011;61036;53.224;6.554;2022-12-18T02:34:26;71.80;;;31.55;;
72895;SDS011;61036;53.224;6.554;2022-12-18T02:36:55;70.13;;;31.60;;
72895;SDS011;61036;53.224;6.554;2022-12-18T02:39:23;72.68;;;31.73;;
72895;SDS011;61036;53.224;6.554;2022-12-18T02:41:57;69.43;;;31.02;;
72895;SDS011;61036;53.224;6.554;2022-12-18T02:44:24;67.85;;;29.33;;
72895;SDS011;61036;53.224;6.554;2022-12-18T02:46:50;75.18;;;32.92;;
72895;SDS011;61036;53.224;6.554;2022-12-18T02:57:50;65.75;;;30.13;;
72895;SDS011;61036;53.224;6.554;2022-12-18T03:00:34;67.90;;;32.75;;
72895;SDS011;61036;53.224;6.554;2022-12-18T03:05:39;70.60;;;31.63;;
72895;SDS011;61036;53.224;6.554;2022-12-18T03:08:27;67.43;;;31.17;;
72895;SDS011;61036;53.224;6.554;2022-12-18T03:11:07;72.03;;;32.28;;
72895;SDS011;61036;53.224;6.554;2022-12-18T03:13:37;71.68;;;32.00;;
72895;SDS011;61036;53.224;6.554;2022-12-18T03:16:13;72.30;;;31.20;;
72895;SDS011;61036;53.224;6.554;2022-12-18T03:21:12;72.88;;;32.95;;
72895;SDS011;61036;53.224;6.554;2022-12-18T03:23:40;71.45;;;32.03;;
72895;SDS011;61036;53.224;6.554;2022-12-18T03:26:14;76.38;;;32.22;;
72895;SDS011;61036;53.224;6.554;2022-12-18T03:28:45;76.05;;;33.72;;
72895;SDS011;61036;53.224;6.554;2022-12-18T03:31:17;70.20;;;31.88;;
72895;SDS011;61036;53.224;6.554;2022-12-18T03:33:54;69.40;;;32.97;;
72895;SDS011;61036;53.224;6.554;2022-12-18T03:36:27;70.55;;;31.75;;
72895;SDS011;61036;53.224;6.554;2022-12-18T03:38:53;68.25;;;31.33;;
72895;SDS011;61036;53.224;6.554;2022-12-18T03:44:13;72.40;;;31.42;;
72895;SDS011;61036;53.224;6.554;2022-12-18T03:49:46;66.43;;;31.83;;
72895;SDS011;61036;53.224;6.554;2022-12-18T03:52:26;70.40;;;33.13;;
72895;SDS011;61036;53.224;6.554;2022-12-18T03:54:58;70.97;;;31.88;;
72895;SDS011;61036;53.224;6.554;2022-12-18T03:57:27;67.10;;;30.63;;
72895;SDS011;61036;53.224;6.554;2022-12-18T04:00:00;71.10;;;31.80;;
72895;SDS011;61036;53.224;6.554;2022-12-18T04:02:40;63.50;;;30.65;;
72895;SDS011;61036;53.224;6.554;2022-12-18T04:05:11;66.57;;;33.38;;
72895;SDS011;61036;53.224;6.554;2022-12-18T04:07:40;66.82;;;30.60;;
72895;SDS011;61036;53.224;6.554;2022-12-18T04:10:08;63.67;;;30.00;;
72895;SDS011;61036;53.224;6.554;2022-12-18T04:12:37;66.10;;;30.67;;
72895;SDS011;61036;53.224;6.554;2022-12-18T04:15:09;73.07;;;31.98;;
72895;SDS011;61036;53.224;6.554;2022-12-18T04:17:35;68.47;;;31.58;;
72895;SDS011;61036;53.224;6.554;2022-12-18T04:20:02;69.10;;;30.17;;
72895;SDS011;61036;53.224;6.554;2022-12-18T04:22:30;67.57;;;30.65;;
72895;SDS011;61036;53.224;6.554;2022-12-18T04:24:58;63.42;;;30.75;;
72895;SDS011;61036;53.224;6.554;2022-12-18T04:28:07;65.97;;;30.73;;
72895;SDS011;61036;53.224;6.554;2022-12-18T04:30:34;67.68;;;30.23;;
72895;SDS011;61036;53.224;6.554;2022-12-18T04:33:02;67.25;;;31.25;;
72895;SDS011;61036;53.224;6.554;2022-12-18T04:35:29;63.40;;;30.45;;
72895;SDS011;61036;53.224;6.554;2022-12-18T04:37:55;65.38;;;30.77;;
72895;SDS011;61036;53.224;6.554;2022-12-18T04:40:21;70.43;;;30.97;;
72895;SDS011;61036;53.224;6.554;2022-12-18T04:42:47;65.57;;;29.60;;
72895;SDS011;61036;53.224;6.554;2022-12-18T04:45:13;67.27;;;30.93;;
72895;SDS011;61036;53.224;6.554;2022-12-18T04:47:39;61.30;;;28.57;;
72895;SDS011;61036;53.224;6.554;2022-12-18T04:50:05;69.13;;;31.10;;
72895;SDS011;61036;53.224;6.554;2022-12-18T04:52:34;64.70;;;28.65;;
72895;SDS011;61036;53.224;6.554;2022-12-18T04:55:00;64.93;;;29.83;;
72895;SDS011;61036;53.224;6.554;2022-12-18T04:57:25;68.37;;;29.63;;
72895;SDS011;61036;53.224;6.554;2022-12-18T04:59:51;60.83;;;27.58;;
72895;SDS011;61036;53.224;6.554;2022-12-18T05:02:17;66.03;;;29.63;;
72895;SDS011;61036;53.224;6.554;2022-12-18T05:04:44;62.80;;;30.30;;
72895;SDS011;61036;53.224;6.554;2022-12-18T05:07:10;62.80;;;28.13;;
72895;SDS011;61036;53.224;6.554;2022-12-18T05:09:38;64.35;;;27.60;;
72895;SDS011;61036;53.224;6.554;2022-12-18T05:12:04;57.22;;;28.38;;
72895;SDS011;61036;53.224;6.554;2022-12-18T05:14:32;57.03;;;27.02;;
72895;SDS011;61036;53.224;6.554;2022-12-18T05:16:58;66.80;;;28.97;;
72895;SDS011;61036;53.224;6.554;2022-12-18T05:19:24;54.70;;;26.33;;
72895;SDS011;61036;53.224;6.554;2022-12-18T05:21:49;62.03;;;27.70;;
72895;SDS011;61036;53.224;6.554;2022-12-18T05:24:15;62.00;;;26.90;;
72895;SDS011;61036;53.224;6.554;2022-12-18T05:26:41;60.55;;;27.67;;
72895;SDS011;61036;53.224;6.554;2022-12-18T05:29:08;51.53;;;25.23;;
72895;SDS011;61036;53.224;6.554;2022-12-18T05:31:39;58.67;;;26.50;;
72895;SDS011;61036;53.224;6.554;2022-12-18T05:34:05;57.95;;;26.45;;
72895;SDS011;61036;53.224;6.554;2022-12-18T05:36:31;57.15;;;28.15;;
72895;SDS011;61036;53.224;6.554;2022-12-18T05:38:57;57.07;;;28.83;;
72895;SDS011;61036;53.224;6.554;2022-12-18T05:41:23;58.60;;;26.87;;
72895;SDS011;61036;53.224;6.554;2022-12-18T05:43:48;58.13;;;27.13;;
72895;SDS011;61036;53.224;6.554;2022-12-18T05:46:15;59.77;;;27.03;;
72895;SDS011;61036;53.224;6.554;2022-12-18T05:48:45;55.47;;;26.75;;
72895;SDS011;61036;53.224;6.554;2022-12-18T05:51:12;59.38;;;26.02;;
72895;SDS011;61036;53.224;6.554;2022-12-18T05:53:39;57.95;;;25.27;;
72895;SDS011;61036;53.224;6.554;2022-12-18T05:56:09;56.15;;;25.88;;
72895;SDS011;61036;53.224;6.554;2022-12-18T05:58:40;55.08;;;25.35;;
72895;SDS011;61036;53.224;6.554;2022-12-18T06:01:17;57.47;;;25.92;;
72895;SDS011;61036;53.224;6.554;2022-12-18T06:03:48;54.40;;;25.38;;
72895;SDS011;61036;53.224;6.554;2022-12-18T06:06:22;59.17;;;26.55;;
72895;SDS011;61036;53.224;6.554;2022-12-18T06:08:49;53.90;;;24.52;;
72895;SDS011;61036;53.224;6.554;2022-12-18T06:11:17;54.75;;;25.95;;
72895;SDS011;61036;53.224;6.554;2022-12-18T06:13:45;53.03;;;25.10;;
72895;SDS011;61036;53.224;6.554;2022-12-18T06:16:11;48.83;;;24.15;;
72895;SDS011;61036;53.224;6.554;2022-12-18T06:18:37;49.83;;;23.97;;
72895;SDS011;61036;53.224;6.554;2022-12-18T06:21:02;46.73;;;24.40;;
72895;SDS011;61036;53.224;6.554;2022-12-18T06:23:29;46.60;;;24.75;;
72895;SDS011;61036;53.224;6.554;2022-12-18T06:25:55;51.67;;;24.50;;
72895;SDS011;61036;53.224;6.554;2022-12-18T06:28:20;46.50;;;22.80;;
72895;SDS011;61036;53.224;6.554;2022-12-18T06:30:46;46.70;;;22.63;;
72895;SDS011;61036;53.224;6.554;2022-12-18T06:33:17;41.35;;;22.77;;
72895;SDS011;61036;53.224;6.554;2022-12-18T06:35:42;43.93;;;22.63;;
72895;SDS011;61036;53.224;6.554;2022-12-18T06:38:11;49.60;;;23.85;;
72895;SDS011;61036;53.224;6.554;2022-12-18T06:40:37;47.97;;;22.70;;
72895;SDS011;61036;53.224;6.554;2022-12-18T06:43:04;48.75;;;23.50;;
72895;SDS011;61036;53.224;6.554;2022-12-18T06:45:29;47.90;;;22.97;;
72895;SDS011;61036;53.224;6.554;2022-12-18T06:47:55;53.40;;;24.80;;
72895;SDS011;61036;53.224;6.554;2022-12-18T06:50:23;50.45;;;24.25;;
72895;SDS011;61036;53.224;6.554;2022-12-18T06:52:49;45.57;;;22.10;;
72895;SDS011;61036;53.224;6.554;2022-12-18T06:55:15;43.25;;;24.10;;
72895;SDS011;61036;53.224;6.554;2022-12-18T06:57:41;41.17;;;22.43;;
72895;SDS011;61036;53.224;6.554;2022-12-18T07:00:07;50.37;;;24.63;;
72895;SDS011;61036;53.224;6.554;2022-12-18T07:02:33;42.67;;;22.70;;
72895;SDS011;61036;53.224;6.554;2022-12-18T07:05:01;47.38;;;22.65;;
72895;SDS011;61036;53.224;6.554;2022-12-18T07:07:27;44.20;;;23.15;;
72895;SDS011;61036;53.224;6.554;2022-12-18T07:09:53;41.90;;;23.27;;
72895;SDS011;61036;53.224;6.554;2022-12-18T07:12:18;39.63;;;22.57;;
72895;SDS011;61036;53.224;6.554;2022-12-18T07:14:44;45.43;;;22.53;;
72895;SDS011;61036;53.224;6.554;2022-12-18T07:17:10;44.92;;;22.80;;
72895;SDS011;61036;53.224;6.554;2022-12-18T07:19:36;38.00;;;20.45;;
72895;SDS011;61036;53.224;6.554;2022-12-18T07:22:02;37.73;;;20.70;;
72895;SDS011;61036;53.224;6.554;2022-12-18T07:24:32;42.63;;;21.27;;
72895;SDS011;61036;53.224;6.554;2022-12-18T07:26:58;34.38;;;20.00;;
72895;SDS011;61036;53.224;6.554;2022-12-18T07:29:24;37.83;;;19.57;;
72895;SDS011;61036;53.224;6.554;2022-12-18T07:31:50;38.65;;;19.77;;
72895;SDS011;61036;53.224;6.554;2022-12-18T07:34:16;37.77;;;19.80;;
72895;SDS011;61036;53.224;6.554;2022-12-18T07:36:41;39.47;;;21.37;;
72895;SDS011;61036;53.224;6.554;2022-12-18T07:39:07;36.33;;;19.07;;
72895;SDS011;61036;53.224;6.554;2022-12-18T07:41:33;37.77;;;21.90;;
72895;SDS011;61036;53.224;6.554;2022-12-18T07:44:09;36.15;;;20.42;;
72895;SDS011;61036;53.224;6.554;2022-12-18T07:46:35;36.90;;;20.05;;
72895;SDS011;61036;53.224;6.554;2022-12-18T07:49:03;33.10;;;19.45;;
72895;SDS011;61036;53.224;6.554;2022-12-18T07:51:28;33.47;;;17.67;;
72895;SDS011;61036;53.224;6.554;2022-12-18T07:53:54;33.83;;;18.10;;
72895;SDS011;61036;53.224;6.554;2022-12-18T07:56:20;40.53;;;19.23;;
72895;SDS011;61036;53.224;6.554;2022-12-18T07:58:46;35.65;;;19.05;;
72895;SDS011;61036;53.224;6.554;2022-12-18T08:01:14;32.20;;;18.52;;
72895;SDS011;61036;53.224;6.554;2022-12-18T08:03:42;33.22;;;18.65;;
72895;SDS011;61036;53.224;6.554;2022-12-18T08:06:08;33.70;;;18.13;;
72895;SDS011;61036;53.224;6.554;2022-12-18T08:08:35;32.85;;;17.08;;
72895;SDS011;61036;53.224;6.554;2022-12-18T08:11:01;30.95;;;16.63;;
72895;SDS011;61036;53.224;6.554;2022-12-18T08:13:27;35.27;;;17.83;;
72895;SDS011;61036;53.224;6.554;2022-12-18T08:16:00;30.45;;;17.85;;
72895;SDS011;61036;53.224;6.554;2022-12-18T08:18:32;30.38;;;17.38;;
72895;SDS011;61036;53.224;6.554;2022-12-18T08:21:06;33.25;;;18.17;;
72895;SDS011;61036;53.224;6.554;2022-12-18T08:23:33;31.08;;;17.30;;
72895;SDS011;61036;53.224;6.554;2022-12-18T08:25:58;27.30;;;16.70;;
72895;SDS011;61036;53.224;6.554;2022-12-18T08:28:24;29.23;;;17.10;;
72895;SDS011;61036;53.224;6.554;2022-12-18T08:30:51;28.83;;;16.30;;
72895;SDS011;61036;53.224;6.554;2022-12-18T08:33:19;29.17;;;16.80;;
72895;SDS011;61036;53.224;6.554;2022-12-18T08:35:45;27.88;;;15.60;;
72895;SDS011;61036;53.224;6.554;2022-12-18T08:38:11;26.63;;;16.27;;
72895;SDS011;61036;53.224;6.554;2022-12-18T08:40:39;27.65;;;16.38;;
72895;SDS011;61036;53.224;6.554;2022-12-18T08:43:04;26.83;;;16.27;;
72895;SDS011;61036;53.224;6.554;2022-12-18T08:45:48;30.02;;;16.02;;
72895;SDS011;61036;53.224;6.554;2022-12-18T08:48:14;28.95;;;16.67;;
72895;SDS011;61036;53.224;6.554;2022-12-18T08:50:40;29.37;;;16.93;;
72895;SDS011;61036;53.224;6.554;2022-12-18T08:53:06;32.25;;;18.50;;
72895;SDS011;61036;53.224;6.554;2022-12-18T08:55:34;33.75;;;18.65;;
72895;SDS011;61036;53.224;6.554;2022-12-18T08:58:00;30.20;;;18.00;;
72895;SDS011;61036;53.224;6.554;2022-12-18T09:00:25;29.20;;;17.27;;
72895;SDS011;61036;53.224;6.554;2022-12-18T09:02:51;31.40;;;17.53;;
72895;SDS011;61036;53.224;6.554;2022-12-18T09:05:17;29.47;;;17.17;;
72895;SDS011;61036;53.224;6.554;2022-12-18T09:07:43;28.80;;;16.33;;
72895;SDS011;61036;53.224;6.554;2022-12-18T09:10:09;31.10;;;17.50;;
72895;SDS011;61036;53.224;6.554;2022-12-18T09:12:37;30.10;;;16.98;;
72895;SDS011;61036;53.224;6.554;2022-12-18T09:15:05;30.27;;;17.58;;
72895;SDS011;61036;53.224;6.554;2022-12-18T09:17:31;29.85;;;16.42;;
72895;SDS011;61036;53.224;6.554;2022-12-18T09:19:56;31.50;;;18.40;;
72895;SDS011;61036;53.224;6.554;2022-12-18T09:22:22;28.43;;;16.90;;
72895;SDS011;61036;53.224;6.554;2022-12-18T09:24:50;32.20;;;18.33;;
72895;SDS011;61036;53.224;6.554;2022-12-18T09:27:16;30.80;;;17.77;;
72895;SDS011;61036;53.224;6.554;2022-12-18T09:29:41;27.43;;;15.93;;
72895;SDS011;61036;53.224;6.554;2022-12-18T09:32:07;25.43;;;16.53;;
72895;SDS011;61036;53.224;6.554;2022-12-18T09:34:32;26.67;;;16.13;;
72895;SDS011;61036;53.224;6.554;2022-12-18T09:36:58;26.90;;;16.43;;
72895;SDS011;61036;53.224;6.554;2022-12-18T09:39:23;25.77;;;17.07;;
72895;SDS011;61036;53.224;6.554;2022-12-18T09:41:53;26.60;;;15.67;;
72895;SDS011;61036;53.224;6.554;2022-12-18T09:44:23;24.83;;;16.20;;
72895;SDS011;61036;53.224;6.554;2022-12-18T09:47:06;28.13;;;16.15;;
72895;SDS011;61036;53.224;6.554;2022-12-18T09:49:38;28.67;;;15.98;;
72895;SDS011;61036;53.224;6.554;2022-12-18T09:52:12;24.95;;;14.68;;
72895;SDS011;61036;53.224;6.554;2022-12-18T09:54:48;26.45;;;15.82;;
72895;SDS011;61036;53.224;6.554;2022-12-18T09:57:23;24.58;;;14.90;;
72895;SDS011;61036;53.224;6.554;2022-12-18T09:59:56;22.60;;;15.30;;
72895;SDS011;61036;53.224;6.554;2022-12-18T10:02:36;26.83;;;15.20;;
72895;SDS011;61036;53.224;6.554;2022-12-18T10:05:04;21.60;;;14.38;;
72895;SDS011;61036;53.224;6.554;2022-12-18T10:07:40;21.30;;;14.13;;
72895;SDS011;61036;53.224;6.554;2022-12-18T10:10:19;23.35;;;14.35;;
72895;SDS011;61036;53.224;6.554;2022-12-18T10:15:31;21.77;;;13.30;;
72895;SDS011;61036;53.224;6.554;2022-12-18T10:18:02;21.90;;;12.20;;
72895;SDS011;61036;53.224;6.554;2022-12-18T10:20:49;18.73;;;12.23;;
72895;SDS011;61036;53.224;6.554;2022-12-18T10:23:34;18.30;;;12.23;;
72895;SDS011;61036;53.224;6.554;2022-12-18T10:26:12;20.53;;;11.40;;
72895;SDS011;61036;53.224;6.554;2022-12-18T10:28:39;19.00;;;12.57;;
72895;SDS011;61036;53.224;6.554;2022-12-18T10:31:19;19.40;;;11.67;;
72895;SDS011;61036;53.224;6.554;2022-12-18T10:33:46;19.48;;;12.10;;
72895;SDS011;61036;53.224;6.554;2022-12-18T10:36:15;21.67;;;12.87;;
72895;SDS011;61036;53.224;6.554;2022-12-18T10:38:40;19.23;;;11.53;;
72895;SDS011;61036;53.224;6.554;2022-12-18T10:43:48;17.60;;;11.82;;
72895;SDS011;61036;53.224;6.554;2022-12-18T10:46:33;17.43;;;11.17;;
72895;SDS011;61036;53.224;6.554;2022-12-18T10:48:59;22.23;;;12.00;;
72895;SDS011;61036;53.224;6.554;2022-12-18T10:54:05;18.48;;;11.40;;
72895;SDS011;61036;53.224;6.554;2022-12-18T10:56:39;19.40;;;10.93;;
72895;SDS011;61036;53.224;6.554;2022-12-18T10:59:06;17.43;;;9.90;;
72895;SDS011;61036;53.224;6.554;2022-12-18T11:01:52;17.23;;;11.32;;
72895;SDS011;61036;53.224;6.554;2022-12-18T11:04:24;18.17;;;11.10;;
72895;SDS011;61036;53.224;6.554;2022-12-18T11:07:07;16.08;;;9.90;;
72895;SDS011;61036;53.224;6.554;2022-12-18T11:09:36;18.23;;;9.35;;
72895;SDS011;61036;53.224;6.554;2022-12-18T11:12:25;16.30;;;10.47;;
72895;SDS011;61036;53.224;6.554;2022-12-18T11:14:53;17.15;;;9.95;;
72895;SDS011;61036;53.224;6.554;2022-12-18T11:17:32;16.17;;;10.03;;
72895;SDS011;61036;53.224;6.554;2022-12-18T11:20:10;15.07;;;9.43;;
72895;SDS011;61036;53.224;6.554;2022-12-18T11:22:57;12.45;;;8.65;;
72895;SDS011;61036;53.224;6.554;2022-12-18T11:25:25;14.65;;;9.48;;
72895;SDS011;61036;53.224;6.554;2022-12-18T11:27:56;13.77;;;8.98;;
72895;SDS011;61036;53.224;6.554;2022-12-18T11:37:59;12.65;;;7.90;;
72895;SDS011;61036;53.224;6.554;2022-12-18T11:40:35;13.02;;;8.13;;
72895;SDS011;61036;53.224;6.554;2022-12-18T11:45:36;12.73;;;7.53;;
72895;SDS011;61036;53.224;6.554;2022-12-18T11:48:13;14.53;;;8.00;;
72895;SDS011;61036;53.224;6.554;2022-12-18T11:50:50;17.07;;;9.40;;
72895;SDS011;61036;53.224;6.554;2022-12-18T11:53:19;12.10;;;7.63;;
72895;SDS011;61036;53.224;6.554;2022-12-18T12:01:07;13.93;;;8.05;;
72895;SDS011;61036;53.224;6.554;2022-12-18T12:04:00;12.43;;;8.20;;
72895;SDS011;61036;53.224;6.554;2022-12-18T12:15:03;13.03;;;7.60;;
72895;SDS011;61036;53.224;6.554;2022-12-18T12:20:20;12.70;;;7.93;;
72895;SDS011;61036;53.224;6.554;2022-12-18T12:25:47;12.03;;;7.90;;
72895;SDS011;61036;53.224;6.554;2022-12-18T12:31:57;13.77;;;7.87;;
72895;SDS011;61036;53.224;6.554;2022-12-18T12:40:04;15.55;;;8.05;;
72895;SDS011;61036;53.224;6.554;2022-12-18T12:42:41;10.70;;;6.63;;
72895;SDS011;61036;53.224;6.554;2022-12-18T12:45:36;12.10;;;6.50;;
72895;SDS011;61036;53.224;6.554;2022-12-18T12:48:13;12.23;;;6.47;;
72895;SDS011;61036;53.224;6.554;2022-12-18T12:51:11;11.50;;;6.20;;
72895;SDS011;61036;53.224;6.554;2022-12-18T12:53:38;10.05;;;5.93;;
72895;SDS011;61036;53.224;6.554;2022-12-18T12:56:05;12.00;;;6.70;;
72895;SDS011;61036;53.224;6.554;2022-12-18T12:58:36;11.03;;;6.57;;
72895;SDS011;61036;53.224;6.554;2022-12-18T13:01:08;11.47;;;6.07;;
72895;SDS011;61036;53.224;6.554;2022-12-18T13:09:13;12.73;;;5.90;;
72895;SDS011;61036;53.224;6.554;2022-12-18T13:11:40;11.97;;;6.87;;
72895;SDS011;61036;53.224;6.554;2022-12-18T13:14:30;13.33;;;6.20;;
72895;SDS011;61036;53.224;6.554;2022-12-18T13:17:24;10.87;;;6.53;;
72895;SDS011;61036;53.224;6.554;2022-12-18T13:20:07;13.00;;;7.77;;
72895;SDS011;61036;53.224;6.554;2022-12-18T13:22:36;10.77;;;6.83;;
72895;SDS011;61036;53.224;6.554;2022-12-18T13:43:21;10.77;;;6.03;;
72895;SDS011;61036;53.224;6.554;2022-12-18T13:48:56;10.63;;;6.03;;
72895;SDS011;61036;53.224;6.554;2022-12-18T13:51:32;13.60;;;8.10;;
72895;SDS011;61036;53.224;6.554;2022-12-18T13:57:05;10.70;;;6.37;;
72895;SDS011;61036;53.224;6.554;2022-12-18T13:59:50;10.57;;;6.13;;
72895;SDS011;61036;53.224;6.554;2022-12-18T14:02:17;11.90;;;6.93;;
72895;SDS011;61036;53.224;6.554;2022-12-18T14:04:47;10.63;;;6.77;;
72895;SDS011;61036;53.224;6.554;2022-12-18T14:07:21;9.97;;;6.50;;
72895;SDS011;61036;53.224;6.554;2022-12-18T14:09:53;13.73;;;7.43;;
72895;SDS011;61036;53.224;6.554;2022-12-18T14:12:25;15.57;;;6.90;;
72895;SDS011;61036;53.224;6.554;2022-12-18T14:18:00;11.33;;;6.37;;
72895;SDS011;61036;53.224;6.554;2022-12-18T14:20:29;10.67;;;6.87;;
72895;SDS011;61036;53.224;6.554;2022-12-18T14:22:58;11.17;;;7.37;;
72895;SDS011;61036;53.224;6.554;2022-12-18T14:25:28;13.00;;;6.67;;
72895;SDS011;61036;53.224;6.554;2022-12-18T14:30:36;17.57;;;10.00;;
72895;SDS011;61036;53.224;6.554;2022-12-18T14:33:16;13.30;;;7.10;;
72895;SDS011;61036;53.224;6.554;2022-12-18T14:35:55;11.07;;;7.20;;
72895;SDS011;61036;53.224;6.554;2022-12-18T14:38:27;13.23;;;8.17;;
72895;SDS011;61036;53.224;6.554;2022-12-18T14:43:36;12.67;;;7.20;;
72895;SDS011;61036;53.224;6.554;2022-12-18T14:49:03;13.37;;;8.93;;
72895;SDS011;61036;53.224;6.554;2022-12-18T14:51:46;12.00;;;7.47;;
72895;SDS011;61036;53.224;6.554;2022-12-18T14:54:15;12.83;;;7.80;;
72895;SDS011;61036;53.224;6.554;2022-12-18T14:56:44;14.47;;;8.67;;
72895;SDS011;61036;53.224;6.554;2022-12-18T14:59:15;25.57;;;16.40;;
72895;SDS011;61036;53.224;6.554;2022-12-18T15:09:41;13.27;;;8.23;;
72895;SDS011;61036;53.224;6.554;2022-12-18T15:14:59;12.83;;;7.57;;
72895;SDS011;61036;53.224;6.554;2022-12-18T15:17:25;12.77;;;8.13;;
72895;SDS011;61036;53.224;6.554;2022-12-18T15:19:52;13.53;;;8.77;;
72895;SDS011;61036;53.224;6.554;2022-12-18T15:22:28;12.57;;;7.87;;
72895;SDS011;61036;53.224;6.554;2022-12-18T15:24:58;14.93;;;8.17;;
72895;SDS011;61036;53.224;6.554;2022-12-18T15:27:26;16.43;;;8.03;;
72895;SDS011;61036;53.224;6.554;2022-12-18T15:32:25;12.80;;;8.00;;
72895;SDS011;61036;53.224;6.554;2022-12-18T15:35:03;13.70;;;7.43;;
72895;SDS011;61036;53.224;6.554;2022-12-18T15:37:39;13.60;;;8.83;;
72895;SDS011;61036;53.224;6.554;2022-12-18T15:40:06;13.43;;;7.90;;
72895;SDS011;61036;53.224;6.554;2022-12-18T15:42:32;14.57;;;8.87;;
72895;SDS011;61036;53.224;6.554;2022-12-18T15:45:17;14.10;;;8.00;;
72895;SDS011;61036;53.224;6.554;2022-12-18T15:47:43;13.13;;;8.13;;
72895;SDS011;61036;53.224;6.554;2022-12-18T15:50:14;13.60;;;8.53;;
72895;SDS011;61036;53.224;6.554;2022-12-18T15:52:41;16.10;;;8.90;;
72895;SDS011;61036;53.224;6.554;2022-12-18T15:55:18;15.50;;;9.27;;
72895;SDS011;61036;53.224;6.554;2022-12-18T15:58:05;15.87;;;8.73;;
72895;SDS011;61036;53.224;6.554;2022-12-18T16:00:31;15.17;;;9.27;;
72895;SDS011;61036;53.224;6.554;2022-12-18T16:03:00;13.30;;;8.90;;
72895;SDS011;61036;53.224;6.554;2022-12-18T16:05:26;13.43;;;8.60;;
72895;SDS011;61036;53.224;6.554;2022-12-18T16:07:52;14.97;;;9.33;;
72895;SDS011;61036;53.224;6.554;2022-12-18T16:10:18;14.93;;;8.80;;
72895;SDS011;61036;53.224;6.554;2022-12-18T16:12:44;13.43;;;9.33;;
72895;SDS011;61036;53.224;6.554;2022-12-18T16:15:10;14.57;;;9.77;;
72895;SDS011;61036;53.224;6.554;2022-12-18T16:17:39;16.23;;;9.10;;
72895;SDS011;61036;53.224;6.554;2022-12-18T16:20:05;14.40;;;9.00;;
72895;SDS011;61036;53.224;6.554;2022-12-18T16:22:40;14.80;;;9.53;;
72895;SDS011;61036;53.224;6.554;2022-12-18T16:25:08;14.60;;;8.80;;
72895;SDS011;61036;53.224;6.554;2022-12-18T16:27:41;14.87;;;9.13;;
72895;SDS011;61036;53.224;6.554;2022-12-18T16:30:11;15.13;;;9.27;;
72895;SDS011;61036;53.224;6.554;2022-12-18T16:32:40;15.80;;;10.00;;
72895;SDS011;61036;53.224;6.554;2022-12-18T16:35:08;15.63;;;10.07;;
72895;SDS011;61036;53.224;6.554;2022-12-18T16:37:37;14.60;;;8.83;;
72895;SDS011;61036;53.224;6.554;2022-12-18T16:40:03;15.23;;;9.30;;
72895;SDS011;61036;53.224;6.554;2022-12-18T16:42:30;14.50;;;9.43;;
72895;SDS011;61036;53.224;6.554;2022-12-18T16:44:57;17.10;;;9.63;;
72895;SDS011;61036;53.224;6.554;2022-12-18T16:47:24;14.87;;;9.50;;
72895;SDS011;61036;53.224;6.554;2022-12-18T16:49:50;16.07;;;9.83;;
72895;SDS011;61036;53.224;6.554;2022-12-18T16:52:17;15.07;;;9.23;;
72895;SDS011;61036;53.224;6.554;2022-12-18T16:54:43;16.47;;;9.77;;
72895;SDS011;61036;53.224;6.554;2022-12-18T16:57:10;16.10;;;8.97;;
72895;SDS011;61036;53.224;6.554;2022-12-18T16:59:40;14.57;;;9.47;;